RCSS/TSA METAR and TAF weather

Enter ICAO airport designator
Station Type Date Time Source
RCSS METAR 2020/07/09 07:00 UTC NOAA

RCSS 090700Z 27009KT 9999 FEW025 SCT045 BKN180 34/27 Q1001 NOSIG RMK 27008KT/R10 A2958


Station Type Date Time Source
RCSS Decoded METAR 2020/07/09 07:00 UTC NOAA

Sungshan / Taipei, Taiwan (RCSS) 25-04N 121-33E
Jul 09, 2020 - 03:00 AM EDT / 2020.07.09 0700 UTC
Wind: from the W (270 degrees) at 10 MPH (9 KT):0
Visibility: greater than 7 mile(s):0
Sky conditions: mostly cloudy
Temperature: 93 F (34 C)
Heat index: 113.0 F (45.0 C):1
Dew Point: 80 F (27 C)
Relative Humidity: 67%
Pressure (altimeter): 29.56 in. Hg (1001 hPa)
ob: RCSS 090700Z 27009KT 9999 FEW025 SCT045 BKN180 34/27 Q1001 NOSIG RMK 27008KT/R10 A2958
cycle: 7

Station Type Date Time Source
RCSS TAF 2020/07/09 06:03 UTC NOAA

TAF RCSS 090500Z 0906/1006 29005KT 9999 FEW020 BKN032
TEMPO 0906/0910 28010KT 5000 SHRA FEW010 FEW015CB BKN020 BKN040
TEMPO 0910/0916 08005KT

Example: see airport list